sensor_id;sensor_type;location;lat;lon;timestamp;temperature;humidity
27226;DHT22;14732;51.074;3.788;2023-05-07T00:01:42;18.20;99.90
27226;DHT22;14732;51.074;3.788;2023-05-07T00:04:08;18.20;99.90
27226;DHT22;14732;51.074;3.788;2023-05-07T00:06:33;18.20;99.90
27226;DHT22;14732;51.074;3.788;2023-05-07T00:08:59;18.20;99.90
27226;DHT22;14732;51.074;3.788;2023-05-07T00:11:26;18.20;99.90
27226;DHT22;14732;51.074;3.788;2023-05-07T00:13:52;18.20;99.90
27226;DHT22;14732;51.074;3.788;2023-05-07T00:16:18;18.20;99.90
27226;DHT22;14732;51.074;3.788;2023-05-07T00:18:44;18.20;99.90
27226;DHT22;14732;51.074;3.788;2023-05-07T00:21:10;18.10;99.90
27226;DHT22;14732;51.074;3.788;2023-05-07T00:23:36;18.10;99.90
27226;DHT22;14732;51.074;3.788;2023-05-07T00:26:02;18.00;99.90
27226;DHT22;14732;51.074;3.788;2023-05-07T00:28:28;18.00;99.90
27226;DHT22;14732;51.074;3.788;2023-05-07T00:30:54;18.00;99.90
27226;DHT22;14732;51.074;3.788;2023-05-07T00:33:20;18.00;99.90
27226;DHT22;14732;51.074;3.788;2023-05-07T00:35:46;17.90;99.90
27226;DHT22;14732;51.074;3.788;2023-05-07T00:38:11;17.80;99.90
27226;DHT22;14732;51.074;3.788;2023-05-07T00:40:37;17.60;99.90
27226;DHT22;14732;51.074;3.788;2023-05-07T00:43:03;17.60;99.90
27226;DHT22;14732;51.074;3.788;2023-05-07T00:45:29;17.60;99.90
27226;DHT22;14732;51.074;3.788;2023-05-07T00:47:59;17.70;99.90
27226;DHT22;14732;51.074;3.788;2023-05-07T00:50:26;17.70;99.90
27226;DHT22;14732;51.074;3.788;2023-05-07T00:52:53;17.80;99.90
27226;DHT22;14732;51.074;3.788;2023-05-07T00:55:19;17.80;99.90
27226;DHT22;14732;51.074;3.788;2023-05-07T00:57:45;17.80;99.90
27226;DHT22;14732;51.074;3.788;2023-05-07T01:00:11;17.80;99.90
27226;DHT22;14732;51.074;3.788;2023-05-07T01:02:41;17.70;99.90
27226;DHT22;14732;51.074;3.788;2023-05-07T01:05:08;17.60;99.90
27226;DHT22;14732;51.074;3.788;2023-05-07T01:07:35;17.60;99.90
27226;DHT22;14732;51.074;3.788;2023-05-07T01:10:02;17.60;99.90
27226;DHT22;14732;51.074;3.788;2023-05-07T01:12:28;17.50;99.90
27226;DHT22;14732;51.074;3.788;2023-05-07T01:14:55;17.60;99.90
27226;DHT22;14732;51.074;3.788;2023-05-07T01:17:21;17.60;99.90
27226;DHT22;14732;51.074;3.788;2023-05-07T01:19:46;17.60;99.90
27226;DHT22;14732;51.074;3.788;2023-05-07T01:22:15;17.60;99.90
27226;DHT22;14732;51.074;3.788;2023-05-07T01:24:42;17.60;99.90
27226;DHT22;14732;51.074;3.788;2023-05-07T01:27:08;17.60;99.90
27226;DHT22;14732;51.074;3.788;2023-05-07T01:29:34;17.50;99.90
27226;DHT22;14732;51.074;3.788;2023-05-07T01:32:00;17.40;99.90
27226;DHT22;14732;51.074;3.788;2023-05-07T01:34:29;17.30;99.90
27226;DHT22;14732;51.074;3.788;2023-05-07T01:36:56;17.30;99.90
27226;DHT22;14732;51.074;3.788;2023-05-07T01:39:28;17.20;99.90
27226;DHT22;14732;51.074;3.788;2023-05-07T01:41:55;17.20;99.90
27226;DHT22;14732;51.074;3.788;2023-05-07T01:44:22;17.30;99.90
27226;DHT22;14732;51.074;3.788;2023-05-07T01:46:48;17.30;99.90
27226;DHT22;14732;51.074;3.788;2023-05-07T01:49:15;17.30;99.90
27226;DHT22;14732;51.074;3.788;2023-05-07T01:51:41;17.20;99.90
27226;DHT22;14732;51.074;3.788;2023-05-07T01:54:07;17.10;99.90
27226;DHT22;14732;51.074;3.788;2023-05-07T01:56:33;17.20;99.90
27226;DHT22;14732;51.074;3.788;2023-05-07T01:58:59;17.20;99.90
27226;DHT22;14732;51.074;3.788;2023-05-07T02:01:25;17.20;99.90
27226;DHT22;14732;51.074;3.788;2023-05-07T02:03:51;17.20;99.90
27226;DHT22;14732;51.074;3.788;2023-05-07T02:06:16;17.20;99.90
27226;DHT22;14732;51.074;3.788;2023-05-07T02:08:42;17.20;99.90
27226;DHT22;14732;51.074;3.788;2023-05-07T02:11:08;17.10;99.90
27226;DHT22;14732;51.074;3.788;2023-05-07T02:13:34;16.90;99.90
27226;DHT22;14732;51.074;3.788;2023-05-07T02:16:01;16.80;99.90
27226;DHT22;14732;51.074;3.788;2023-05-07T02:18:26;16.80;99.90
27226;DHT22;14732;51.074;3.788;2023-05-07T02:20:52;16.90;99.90
27226;DHT22;14732;51.074;3.788;2023-05-07T02:23:18;16.90;99.90
27226;DHT22;14732;51.074;3.788;2023-05-07T02:25:43;17.00;99.90
27226;DHT22;14732;51.074;3.788;2023-05-07T02:28:09;17.00;99.90
27226;DHT22;14732;51.074;3.788;2023-05-07T02:30:36;17.00;99.90
27226;DHT22;14732;51.074;3.788;2023-05-07T02:33:02;17.10;99.90
27226;DHT22;14732;51.074;3.788;2023-05-07T02:35:27;17.00;99.90
27226;DHT22;14732;51.074;3.788;2023-05-07T02:37:53;17.00;99.90
27226;DHT22;14732;51.074;3.788;2023-05-07T02:40:19;16.90;99.90
27226;DHT22;14732;51.074;3.788;2023-05-07T02:42:45;16.80;99.90
27226;DHT22;14732;51.074;3.788;2023-05-07T02:45:11;16.80;99.90
27226;DHT22;14732;51.074;3.788;2023-05-07T02:47:36;16.90;99.90
27226;DHT22;14732;51.074;3.788;2023-05-07T02:50:02;16.90;99.90
27226;DHT22;14732;51.074;3.788;2023-05-07T02:52:29;16.90;99.90
27226;DHT22;14732;51.074;3.788;2023-05-07T02:54:54;16.80;99.90
27226;DHT22;14732;51.074;3.788;2023-05-07T02:57:20;16.80;99.90
27226;DHT22;14732;51.074;3.788;2023-05-07T02:59:46;16.80;99.90
27226;DHT22;14732;51.074;3.788;2023-05-07T03:02:12;16.80;99.90
27226;DHT22;14732;51.074;3.788;2023-05-07T03:04:39;16.80;99.90
27226;DHT22;14732;51.074;3.788;2023-05-07T03:07:05;16.80;99.90
27226;DHT22;14732;51.074;3.788;2023-05-07T03:09:31;16.70;99.90
27226;DHT22;14732;51.074;3.788;2023-05-07T03:11:58;16.70;99.90
27226;DHT22;14732;51.074;3.788;2023-05-07T03:14:23;16.70;99.90
27226;DHT22;14732;51.074;3.788;2023-05-07T03:16:49;16.70;99.90
27226;DHT22;14732;51.074;3.788;2023-05-07T03:19:15;16.80;99.90
27226;DHT22;14732;51.074;3.788;2023-05-07T03:21:41;16.70;99.90
27226;DHT22;14732;51.074;3.788;2023-05-07T03:24:07;16.70;99.90
27226;DHT22;14732;51.074;3.788;2023-05-07T03:26:32;16.80;99.90
27226;DHT22;14732;51.074;3.788;2023-05-07T03:28:58;16.80;99.90
27226;DHT22;14732;51.074;3.788;2023-05-07T03:31:24;16.80;99.90
27226;DHT22;14732;51.074;3.788;2023-05-07T03:33:59;16.80;99.90
27226;DHT22;14732;51.074;3.788;2023-05-07T03:36:24;16.80;99.90
27226;DHT22;14732;51.074;3.788;2023-05-07T03:38:52;16.80;99.90
27226;DHT22;14732;51.074;3.788;2023-05-07T03:41:17;16.70;99.90
27226;DHT22;14732;51.074;3.788;2023-05-07T03:43:43;16.60;99.90
27226;DHT22;14732;51.074;3.788;2023-05-07T03:46:09;16.60;99.90
27226;DHT22;14732;51.074;3.788;2023-05-07T03:48:34;16.60;99.90
27226;DHT22;14732;51.074;3.788;2023-05-07T03:51:00;16.70;99.90
27226;DHT22;14732;51.074;3.788;2023-05-07T03:53:26;16.70;99.90
27226;DHT22;14732;51.074;3.788;2023-05-07T03:55:51;16.70;99.90
27226;DHT22;14732;51.074;3.788;2023-05-07T03:58:17;16.70;99.90
27226;DHT22;14732;51.074;3.788;2023-05-07T04:00:43;16.70;99.90
27226;DHT22;14732;51.074;3.788;2023-05-07T04:03:08;16.70;99.90
27226;DHT22;14732;51.074;3.788;2023-05-07T04:05:34;16.70;99.90
27226;DHT22;14732;51.074;3.788;2023-05-07T04:08:00;16.80;99.90
27226;DHT22;14732;51.074;3.788;2023-05-07T04:10:26;16.80;99.90
27226;DHT22;14732;51.074;3.788;2023-05-07T04:12:53;16.80;99.90
27226;DHT22;14732;51.074;3.788;2023-05-07T04:15:19;16.80;99.90
27226;DHT22;14732;51.074;3.788;2023-05-07T04:17:45;16.80;99.90
27226;DHT22;14732;51.074;3.788;2023-05-07T04:20:16;16.80;99.90
27226;DHT22;14732;51.074;3.788;2023-05-07T04:22:42;16.70;99.90
27226;DHT22;14732;51.074;3.788;2023-05-07T04:25:08;16.70;99.90
27226;DHT22;14732;51.074;3.788;2023-05-07T04:27:37;16.70;99.90
27226;DHT22;14732;51.074;3.788;2023-05-07T04:30:03;16.80;99.90
27226;DHT22;14732;51.074;3.788;2023-05-07T04:32:29;16.80;99.90
27226;DHT22;14732;51.074;3.788;2023-05-07T04:34:56;16.80;99.90
27226;DHT22;14732;51.074;3.788;2023-05-07T04:37:22;16.90;99.90
27226;DHT22;14732;51.074;3.788;2023-05-07T04:39:48;16.90;99.90
27226;DHT22;14732;51.074;3.788;2023-05-07T04:42:17;16.90;99.90
27226;DHT22;14732;51.074;3.788;2023-05-07T04:44:44;16.90;99.90
27226;DHT22;14732;51.074;3.788;2023-05-07T04:47:10;16.90;99.90
27226;DHT22;14732;51.074;3.788;2023-05-07T04:49:36;17.00;99.90
27226;DHT22;14732;51.074;3.788;2023-05-07T04:52:02;17.00;99.90
27226;DHT22;14732;51.074;3.788;2023-05-07T04:54:28;17.00;99.90
27226;DHT22;14732;51.074;3.788;2023-05-07T04:56:55;17.00;99.90
27226;DHT22;14732;51.074;3.788;2023-05-07T04:59:20;17.00;99.90
27226;DHT22;14732;51.074;3.788;2023-05-07T05:01:46;17.00;99.90
27226;DHT22;14732;51.074;3.788;2023-05-07T05:04:12;17.10;99.90
27226;DHT22;14732;51.074;3.788;2023-05-07T05:06:38;17.10;99.90
27226;DHT22;14732;51.074;3.788;2023-05-07T05:09:04;17.10;99.90
27226;DHT22;14732;51.074;3.788;2023-05-07T05:11:31;17.20;99.90
27226;DHT22;14732;51.074;3.788;2023-05-07T05:13:56;17.20;99.90
27226;DHT22;14732;51.074;3.788;2023-05-07T05:16:22;17.10;99.90
27226;DHT22;14732;51.074;3.788;2023-05-07T05:18:48;17.10;99.90
27226;DHT22;14732;51.074;3.788;2023-05-07T05:21:14;17.10;99.90
27226;DHT22;14732;51.074;3.788;2023-05-07T05:23:40;17.20;99.90
27226;DHT22;14732;51.074;3.788;2023-05-07T05:26:05;17.20;99.90
27226;DHT22;14732;51.074;3.788;2023-05-07T05:28:31;17.10;99.90
27226;DHT22;14732;51.074;3.788;2023-05-07T05:30:57;17.10;99.90
27226;DHT22;14732;51.074;3.788;2023-05-07T05:33:22;17.10;99.90
27226;DHT22;14732;51.074;3.788;2023-05-07T05:35:49;17.20;99.90
27226;DHT22;14732;51.074;3.788;2023-05-07T05:38:15;17.20;99.90
27226;DHT22;14732;51.074;3.788;2023-05-07T05:40:41;17.20;99.90
27226;DHT22;14732;51.074;3.788;2023-05-07T05:43:07;17.20;99.90
27226;DHT22;14732;51.074;3.788;2023-05-07T05:45:32;17.30;99.90
27226;DHT22;14732;51.074;3.788;2023-05-07T05:47:58;17.30;99.90
27226;DHT22;14732;51.074;3.788;2023-05-07T05:50:24;17.30;99.90
27226;DHT22;14732;51.074;3.788;2023-05-07T05:52:50;17.40;99.90
27226;DHT22;14732;51.074;3.788;2023-05-07T05:55:16;17.40;99.90
27226;DHT22;14732;51.074;3.788;2023-05-07T05:57:42;17.40;99.90
27226;DHT22;14732;51.074;3.788;2023-05-07T06:00:08;17.40;99.90
27226;DHT22;14732;51.074;3.788;2023-05-07T06:02:34;17.30;99.90
27226;DHT22;14732;51.074;3.788;2023-05-07T06:05:00;17.30;99.90
27226;DHT22;14732;51.074;3.788;2023-05-07T06:07:25;17.30;99.90
27226;DHT22;14732;51.074;3.788;2023-05-07T06:09:51;17.30;99.90
27226;DHT22;14732;51.074;3.788;2023-05-07T06:12:16;17.30;99.90
27226;DHT22;14732;51.074;3.788;2023-05-07T06:14:45;17.30;99.90
27226;DHT22;14732;51.074;3.788;2023-05-07T06:17:11;17.40;99.90
27226;DHT22;14732;51.074;3.788;2023-05-07T06:19:36;17.50;99.90
27226;DHT22;14732;51.074;3.788;2023-05-07T06:22:02;17.50;99.90
27226;DHT22;14732;51.074;3.788;2023-05-07T06:24:28;17.60;99.90
27226;DHT22;14732;51.074;3.788;2023-05-07T06:26:54;17.60;99.90
27226;DHT22;14732;51.074;3.788;2023-05-07T06:29:20;17.60;99.90
27226;DHT22;14732;51.074;3.788;2023-05-07T06:31:45;17.60;99.90
27226;DHT22;14732;51.074;3.788;2023-05-07T06:34:11;17.70;99.90
27226;DHT22;14732;51.074;3.788;2023-05-07T06:36:40;17.70;99.90
27226;DHT22;14732;51.074;3.788;2023-05-07T06:39:06;17.70;99.90
27226;DHT22;14732;51.074;3.788;2023-05-07T06:41:31;17.70;99.90
27226;DHT22;14732;51.074;3.788;2023-05-07T06:43:57;17.70;99.90
27226;DHT22;14732;51.074;3.788;2023-05-07T06:46:23;17.70;99.90
27226;DHT22;14732;51.074;3.788;2023-05-07T06:48:48;17.80;99.90
27226;DHT22;14732;51.074;3.788;2023-05-07T06:51:14;17.90;99.90
27226;DHT22;14732;51.074;3.788;2023-05-07T06:53:40;17.80;99.90
27226;DHT22;14732;51.074;3.788;2023-05-07T06:56:06;17.70;99.90
27226;DHT22;14732;51.074;3.788;2023-05-07T06:58:32;17.70;99.90
27226;DHT22;14732;51.074;3.788;2023-05-07T07:00:58;17.80;99.90
27226;DHT22;14732;51.074;3.788;2023-05-07T07:03:24;17.70;99.90
27226;DHT22;14732;51.074;3.788;2023-05-07T07:05:54;17.90;99.90
27226;DHT22;14732;51.074;3.788;2023-05-07T07:08:20;17.90;99.90
27226;DHT22;14732;51.074;3.788;2023-05-07T07:10:47;17.90;99.90
27226;DHT22;14732;51.074;3.788;2023-05-07T07:13:13;17.90;99.90
27226;DHT22;14732;51.074;3.788;2023-05-07T07:15:38;17.90;99.90
27226;DHT22;14732;51.074;3.788;2023-05-07T07:18:04;18.10;99.90
27226;DHT22;14732;51.074;3.788;2023-05-07T07:20:30;18.10;99.90
27226;DHT22;14732;51.074;3.788;2023-05-07T07:22:56;18.10;99.90
27226;DHT22;14732;51.074;3.788;2023-05-07T07:25:21;18.10;99.90
27226;DHT22;14732;51.074;3.788;2023-05-07T07:27:47;18.10;99.90
27226;DHT22;14732;51.074;3.788;2023-05-07T07:30:13;18.10;99.90
27226;DHT22;14732;51.074;3.788;2023-05-07T07:32:38;18.20;99.90
27226;DHT22;14732;51.074;3.788;2023-05-07T07:35:04;18.20;99.90
27226;DHT22;14732;51.074;3.788;2023-05-07T07:37:30;18.30;99.90
27226;DHT22;14732;51.074;3.788;2023-05-07T07:39:56;18.30;99.90
27226;DHT22;14732;51.074;3.788;2023-05-07T07:42:22;18.20;99.90
27226;DHT22;14732;51.074;3.788;2023-05-07T07:44:48;18.20;99.90
27226;DHT22;14732;51.074;3.788;2023-05-07T07:47:14;18.30;99.90
27226;DHT22;14732;51.074;3.788;2023-05-07T07:49:39;18.30;99.90
27226;DHT22;14732;51.074;3.788;2023-05-07T07:52:05;18.20;99.90
27226;DHT22;14732;51.074;3.788;2023-05-07T07:54:31;18.10;99.90
27226;DHT22;14732;51.074;3.788;2023-05-07T07:56:56;18.20;99.90
27226;DHT22;14732;51.074;3.788;2023-05-07T07:59:22;18.40;99.90
27226;DHT22;14732;51.074;3.788;2023-05-07T08:01:48;18.50;99.90
27226;DHT22;14732;51.074;3.788;2023-05-07T08:04:15;18.40;99.90
27226;DHT22;14732;51.074;3.788;2023-05-07T08:06:41;18.30;99.90
27226;DHT22;14732;51.074;3.788;2023-05-07T08:09:07;18.20;99.90
27226;DHT22;14732;51.074;3.788;2023-05-07T08:11:33;18.30;99.90
27226;DHT22;14732;51.074;3.788;2023-05-07T08:13:59;18.20;99.90
27226;DHT22;14732;51.074;3.788;2023-05-07T08:16:25;18.30;99.90
27226;DHT22;14732;51.074;3.788;2023-05-07T08:18:51;18.20;99.90
27226;DHT22;14732;51.074;3.788;2023-05-07T08:21:17;18.20;99.90
27226;DHT22;14732;51.074;3.788;2023-05-07T08:23:42;18.10;99.90
27226;DHT22;14732;51.074;3.788;2023-05-07T08:26:08;18.10;99.90
27226;DHT22;14732;51.074;3.788;2023-05-07T08:28:34;18.10;99.90
27226;DHT22;14732;51.074;3.788;2023-05-07T08:31:00;18.10;99.90
27226;DHT22;14732;51.074;3.788;2023-05-07T08:33:26;18.00;99.90
27226;DHT22;14732;51.074;3.788;2023-05-07T08:35:52;18.00;99.90
27226;DHT22;14732;51.074;3.788;2023-05-07T08:38:17;18.10;99.90
27226;DHT22;14732;51.074;3.788;2023-05-07T08:40:43;18.30;99.90
27226;DHT22;14732;51.074;3.788;2023-05-07T08:43:12;18.30;99.90
27226;DHT22;14732;51.074;3.788;2023-05-07T08:45:39;18.40;99.90
27226;DHT22;14732;51.074;3.788;2023-05-07T08:48:09;18.50;99.90
27226;DHT22;14732;51.074;3.788;2023-05-07T08:50:36;18.60;99.90
27226;DHT22;14732;51.074;3.788;2023-05-07T08:53:05;18.40;99.90
27226;DHT22;14732;51.074;3.788;2023-05-07T08:55:31;18.40;99.90
27226;DHT22;14732;51.074;3.788;2023-05-07T08:57:56;18.40;99.90
27226;DHT22;14732;51.074;3.788;2023-05-07T09:00:22;18.50;99.90
27226;DHT22;14732;51.074;3.788;2023-05-07T09:02:48;18.60;99.90
27226;DHT22;14732;51.074;3.788;2023-05-07T09:05:14;18.60;99.90
27226;DHT22;14732;51.074;3.788;2023-05-07T09:07:40;18.60;99.90
27226;DHT22;14732;51.074;3.788;2023-05-07T09:10:06;18.60;99.90
27226;DHT22;14732;51.074;3.788;2023-05-07T09:12:32;18.60;99.90
27226;DHT22;14732;51.074;3.788;2023-05-07T09:14:59;18.50;99.90
27226;DHT22;14732;51.074;3.788;2023-05-07T09:17:25;18.70;99.90
27226;DHT22;14732;51.074;3.788;2023-05-07T09:19:50;18.70;99.90
27226;DHT22;14732;51.074;3.788;2023-05-07T09:22:16;18.90;99.90
27226;DHT22;14732;51.074;3.788;2023-05-07T09:24:48;18.90;99.90
27226;DHT22;14732;51.074;3.788;2023-05-07T09:27:14;18.80;99.90
27226;DHT22;14732;51.074;3.788;2023-05-07T09:29:40;18.90;99.90
27226;DHT22;14732;51.074;3.788;2023-05-07T09:32:07;18.90;99.90
27226;DHT22;14732;51.074;3.788;2023-05-07T09:34:33;19.00;99.90
27226;DHT22;14732;51.074;3.788;2023-05-07T09:37:03;19.20;99.90
27226;DHT22;14732;51.074;3.788;2023-05-07T09:39:43;19.10;99.90
27226;DHT22;14732;51.074;3.788;2023-05-07T09:42:09;19.20;99.90
27226;DHT22;14732;51.074;3.788;2023-05-07T09:44:37;19.30;99.90
27226;DHT22;14732;51.074;3.788;2023-05-07T09:47:05;19.20;99.90
27226;DHT22;14732;51.074;3.788;2023-05-07T09:49:34;19.20;99.90
27226;DHT22;14732;51.074;3.788;2023-05-07T09:52:02;19.30;99.90
27226;DHT22;14732;51.074;3.788;2023-05-07T09:54:29;19.60;99.90
27226;DHT22;14732;51.074;3.788;2023-05-07T09:56:55;19.60;99.90
27226;DHT22;14732;51.074;3.788;2023-05-07T09:59:22;19.50;99.90
27226;DHT22;14732;51.074;3.788;2023-05-07T10:01:49;19.70;99.90
27226;DHT22;14732;51.074;3.788;2023-05-07T10:04:15;19.80;99.90
27226;DHT22;14732;51.074;3.788;2023-05-07T10:06:44;19.90;99.90
27226;DHT22;14732;51.074;3.788;2023-05-07T10:09:10;19.90;99.90
27226;DHT22;14732;51.074;3.788;2023-05-07T10:11:37;20.00;99.90
27226;DHT22;14732;51.074;3.788;2023-05-07T10:14:04;19.80;99.90
27226;DHT22;14732;51.074;3.788;2023-05-07T10:16:35;19.90;99.90
27226;DHT22;14732;51.074;3.788;2023-05-07T10:19:05;20.00;99.90
27226;DHT22;14732;51.074;3.788;2023-05-07T10:21:34;20.40;99.90
27226;DHT22;14732;51.074;3.788;2023-05-07T10:24:13;20.70;99.90
27226;DHT22;14732;51.074;3.788;2023-05-07T10:26:48;20.70;99.90
27226;DHT22;14732;51.074;3.788;2023-05-07T10:34:23;20.10;99.90
27226;DHT22;14732;51.074;3.788;2023-05-07T10:36:51;20.20;99.90
27226;DHT22;14732;51.074;3.788;2023-05-07T10:39:17;20.10;99.90
27226;DHT22;14732;51.074;3.788;2023-05-07T10:41:45;20.40;99.90
27226;DHT22;14732;51.074;3.788;2023-05-07T10:44:10;20.60;99.90
27226;DHT22;14732;51.074;3.788;2023-05-07T10:46:36;21.20;99.90
27226;DHT22;14732;51.074;3.788;2023-05-07T10:51:29;21.40;99.90
27226;DHT22;14732;51.074;3.788;2023-05-07T10:56:41;21.60;99.90
27226;DHT22;14732;51.074;3.788;2023-05-07T11:01:53;21.70;99.90
27226;DHT22;14732;51.074;3.788;2023-05-07T11:04:19;21.90;99.90
27226;DHT22;14732;51.074;3.788;2023-05-07T11:15:09;21.80;99.90
27226;DHT22;14732;51.074;3.788;2023-05-07T11:17:56;22.20;99.90
27226;DHT22;14732;51.074;3.788;2023-05-07T11:20:44;22.50;99.90
27226;DHT22;14732;51.074;3.788;2023-05-07T11:26:07;21.80;99.90
27226;DHT22;14732;51.074;3.788;2023-05-07T11:28:40;22.10;99.90
27226;DHT22;14732;51.074;3.788;2023-05-07T11:31:06;22.40;99.90
27226;DHT22;14732;51.074;3.788;2023-05-07T11:33:33;22.40;99.90
27226;DHT22;14732;51.074;3.788;2023-05-07T11:36:03;22.10;99.90
27226;DHT22;14732;51.074;3.788;2023-05-07T11:38:36;21.80;99.90
27226;DHT22;14732;51.074;3.788;2023-05-07T11:41:03;21.70;99.90
27226;DHT22;14732;51.074;3.788;2023-05-07T11:43:31;21.60;99.90
27226;DHT22;14732;51.074;3.788;2023-05-07T11:46:09;21.90;99.90
27226;DHT22;14732;51.074;3.788;2023-05-07T11:48:35;22.00;99.90
27226;DHT22;14732;51.074;3.788;2023-05-07T11:51:05;22.00;99.90
27226;DHT22;14732;51.074;3.788;2023-05-07T11:53:42;22.00;99.90
27226;DHT22;14732;51.074;3.788;2023-05-07T11:56:09;22.00;99.90
27226;DHT22;14732;51.074;3.788;2023-05-07T11:58:35;21.80;99.90
27226;DHT22;14732;51.074;3.788;2023-05-07T12:01:01;21.70;99.90
27226;DHT22;14732;51.074;3.788;2023-05-07T12:03:27;21.60;99.90
27226;DHT22;14732;51.074;3.788;2023-05-07T12:05:53;21.50;99.90
27226;DHT22;14732;51.074;3.788;2023-05-07T12:08:20;21.20;99.90
27226;DHT22;14732;51.074;3.788;2023-05-07T12:10:49;20.90;99.90
27226;DHT22;14732;51.074;3.788;2023-05-07T12:13:25;20.80;99.90
27226;DHT22;14732;51.074;3.788;2023-05-07T12:16:00;20.60;99.90
27226;DHT22;14732;51.074;3.788;2023-05-07T12:18:28;20.60;99.90
27226;DHT22;14732;51.074;3.788;2023-05-07T12:20:55;20.80;99.90
27226;DHT22;14732;51.074;3.788;2023-05-07T12:23:22;21.00;99.90
27226;DHT22;14732;51.074;3.788;2023-05-07T12:25:48;21.30;99.90
27226;DHT22;14732;51.074;3.788;2023-05-07T12:28:18;21.70;99.90
27226;DHT22;14732;51.074;3.788;2023-05-07T12:30:46;22.10;99.90
27226;DHT22;14732;51.074;3.788;2023-05-07T12:33:12;22.30;99.90
27226;DHT22;14732;51.074;3.788;2023-05-07T12:35:42;22.60;99.90
27226;DHT22;14732;51.074;3.788;2023-05-07T12:38:17;22.50;99.90
27226;DHT22;14732;51.074;3.788;2023-05-07T12:40:53;22.70;99.90
27226;DHT22;14732;51.074;3.788;2023-05-07T12:43:27;22.70;99.90
27226;DHT22;14732;51.074;3.788;2023-05-07T12:46:05;22.50;99.90
27226;DHT22;14732;51.074;3.788;2023-05-07T12:48:31;22.30;99.90
27226;DHT22;14732;51.074;3.788;2023-05-07T12:50:58;22.20;99.90
27226;DHT22;14732;51.074;3.788;2023-05-07T12:53:26;22.20;99.90
27226;DHT22;14732;51.074;3.788;2023-05-07T12:55:54;22.40;99.90
27226;DHT22;14732;51.074;3.788;2023-05-07T12:58:28;22.50;99.90
27226;DHT22;14732;51.074;3.788;2023-05-07T13:00:55;22.50;99.90
27226;DHT22;14732;51.074;3.788;2023-05-07T13:03:28;22.60;99.90
27226;DHT22;14732;51.074;3.788;2023-05-07T13:05:57;22.10;99.90
27226;DHT22;14732;51.074;3.788;2023-05-07T13:08:34;22.20;99.90
27226;DHT22;14732;51.074;3.788;2023-05-07T13:11:03;22.10;99.90
27226;DHT22;14732;51.074;3.788;2023-05-07T13:13:33;22.40;99.90
27226;DHT22;14732;51.074;3.788;2023-05-07T13:15:59;22.10;99.90
27226;DHT22;14732;51.074;3.788;2023-05-07T13:18:26;22.60;99.90
27226;DHT22;14732;51.074;3.788;2023-05-07T13:20:53;22.90;99.90
27226;DHT22;14732;51.074;3.788;2023-05-07T13:23:19;23.10;99.90
27226;DHT22;14732;51.074;3.788;2023-05-07T13:25:45;23.00;99.90
27226;DHT22;14732;51.074;3.788;2023-05-07T13:28:10;22.20;99.90
27226;DHT22;14732;51.074;3.788;2023-05-07T13:30:36;22.10;99.90
27226;DHT22;14732;51.074;3.788;2023-05-07T13:33:02;22.80;99.90
27226;DHT22;14732;51.074;3.788;2023-05-07T13:35:28;23.00;99.90
27226;DHT22;14732;51.074;3.788;2023-05-07T13:37:54;23.40;99.90
27226;DHT22;14732;51.074;3.788;2023-05-07T13:40:20;23.50;99.90
27226;DHT22;14732;51.074;3.788;2023-05-07T13:42:47;23.70;99.90
27226;DHT22;14732;51.074;3.788;2023-05-07T13:45:13;23.90;99.90
27226;DHT22;14732;51.074;3.788;2023-05-07T13:47:43;23.30;99.90
27226;DHT22;14732;51.074;3.788;2023-05-07T13:50:10;23.10;99.90
27226;DHT22;14732;51.074;3.788;2023-05-07T13:52:37;23.60;99.90
27226;DHT22;14732;51.074;3.788;2023-05-07T13:55:03;23.90;99.90
27226;DHT22;14732;51.074;3.788;2023-05-07T13:57:29;24.00;99.90
27226;DHT22;14732;51.074;3.788;2023-05-07T13:59:55;24.10;99.90
27226;DHT22;14732;51.074;3.788;2023-05-07T14:02:20;24.40;99.90
27226;DHT22;14732;51.074;3.788;2023-05-07T14:04:46;24.60;99.90
27226;DHT22;14732;51.074;3.788;2023-05-07T14:07:12;24.50;99.90
27226;DHT22;14732;51.074;3.788;2023-05-07T14:09:37;24.40;99.90
27226;DHT22;14732;51.074;3.788;2023-05-07T14:12:03;24.30;99.90
27226;DHT22;14732;51.074;3.788;2023-05-07T14:14:30;24.40;99.90
27226;DHT22;14732;51.074;3.788;2023-05-07T14:16:55;24.30;99.90
27226;DHT22;14732;51.074;3.788;2023-05-07T14:19:21;24.40;99.90
27226;DHT22;14732;51.074;3.788;2023-05-07T14:21:48;24.30;99.90
27226;DHT22;14732;51.074;3.788;2023-05-07T14:24:14;23.90;99.90
27226;DHT22;14732;51.074;3.788;2023-05-07T14:26:41;23.30;99.90
27226;DHT22;14732;51.074;3.788;2023-05-07T14:29:06;22.90;99.90
27226;DHT22;14732;51.074;3.788;2023-05-07T14:31:32;22.70;99.90
27226;DHT22;14732;51.074;3.788;2023-05-07T14:33:58;22.70;99.90
27226;DHT22;14732;51.074;3.788;2023-05-07T14:36:24;22.60;99.90
27226;DHT22;14732;51.074;3.788;2023-05-07T14:38:52;22.50;99.90
27226;DHT22;14732;51.074;3.788;2023-05-07T14:41:20;22.60;99.90
27226;DHT22;14732;51.074;3.788;2023-05-07T14:43:47;22.50;99.90
27226;DHT22;14732;51.074;3.788;2023-05-07T14:46:16;22.30;99.90
27226;DHT22;14732;51.074;3.788;2023-05-07T14:48:44;22.00;99.90
27226;DHT22;14732;51.074;3.788;2023-05-07T14:51:10;21.10;99.90
27226;DHT22;14732;51.074;3.788;2023-05-07T14:53:36;20.80;99.90
27226;DHT22;14732;51.074;3.788;2023-05-07T14:56:02;20.60;99.90
27226;DHT22;14732;51.074;3.788;2023-05-07T14:58:28;20.30;99.90
27226;DHT22;14732;51.074;3.788;2023-05-07T15:00:54;20.30;99.90
27226;DHT22;14732;51.074;3.788;2023-05-07T15:03:20;20.40;99.90
27226;DHT22;14732;51.074;3.788;2023-05-07T15:05:47;20.40;99.90
27226;DHT22;14732;51.074;3.788;2023-05-07T15:08:12;20.30;99.90
27226;DHT22;14732;51.074;3.788;2023-05-07T15:10:38;19.90;99.90
27226;DHT22;14732;51.074;3.788;2023-05-07T15:13:10;20.00;99.90
27226;DHT22;14732;51.074;3.788;2023-05-07T15:15:36;20.00;99.90
27226;DHT22;14732;51.074;3.788;2023-05-07T15:18:02;19.90;99.90
27226;DHT22;14732;51.074;3.788;2023-05-07T15:20:28;19.80;99.90
27226;DHT22;14732;51.074;3.788;2023-05-07T15:22:54;19.70;99.90
27226;DHT22;14732;51.074;3.788;2023-05-07T15:25:20;19.80;99.90
27226;DHT22;14732;51.074;3.788;2023-05-07T15:27:46;19.90;99.90
27226;DHT22;14732;51.074;3.788;2023-05-07T15:30:12;19.90;99.90
27226;DHT22;14732;51.074;3.788;2023-05-07T15:32:39;19.80;99.90
27226;DHT22;14732;51.074;3.788;2023-05-07T15:35:06;19.80;99.90
27226;DHT22;14732;51.074;3.788;2023-05-07T15:37:32;20.10;99.90
27226;DHT22;14732;51.074;3.788;2023-05-07T15:39:58;20.20;99.90
27226;DHT22;14732;51.074;3.788;2023-05-07T15:42:23;20.20;99.90
27226;DHT22;14732;51.074;3.788;2023-05-07T15:44:49;20.20;99.90
27226;DHT22;14732;51.074;3.788;2023-05-07T15:47:15;20.20;99.90
27226;DHT22;14732;51.074;3.788;2023-05-07T15:49:41;19.80;99.90
27226;DHT22;14732;51.074;3.788;2023-05-07T15:52:07;19.90;99.90